Time;durP1;ratioP1;P1;durP2;ratioP2;P2;SDS_P1;SDS_P2;PMS_P1;PMS_P2;Temp;Humidity;BMP_temperature;BMP_pressure;BME280_temperature;BME280_humidity;BME280_pressure;Samples;Min_cycle;Max_cycle;Signal;HPM_P1;HPM_P2
2021/12/14 00:00:56;;;;;;;47.00;19.85;;;;;;;-1.96;87.48;101348.13;4421849;32;20504;-72
2021/12/14 00:03:29;;;;;;;41.30;18.25;;;;;;;-2.07;88.14;101350.94;4421924;32;20090;-72
2021/12/14 00:05:56;;;;;;;43.42;16.45;;;;;;;-1.94;88.14;101351.69;4421965;32;20412;-72
2021/12/14 00:08:26;;;;;;;35.85;13.52;;;;;;;-1.74;88.07;101351.84;4421870;32;20101;-72
2021/12/14 00:13:57;;;;;;;35.85;14.65;;;;;;;-1.56;88.15;101350.22;4421906;32;20073;-72
2021/12/14 00:16:16;;;;;;;38.67;15.23;;;;;;;-1.81;89.02;101349.75;4421758;32;20138;-72
2021/12/14 00:18:43;;;;;;;36.47;15.02;;;;;;;-1.97;89.27;101353.22;4421715;32;20437;-72
2021/12/14 00:21:20;;;;;;;33.50;13.40;;;;;;;-2.00;88.70;101350.47;4421643;32;20102;-72
2021/12/14 00:24:06;;;;;;;35.50;15.18;;;;;;;-2.13;88.63;101354.06;4421614;32;20145;-72
2021/12/14 00:26:38;;;;;;;32.13;13.25;;;;;;;-1.99;87.94;101350.53;4421650;32;20093;-72
2021/12/14 00:29:08;;;;;;;30.58;12.73;;;;;;;-2.07;88.73;101367.31;4421657;32;20152;-72
2021/12/14 00:31:37;;;;;;;30.33;14.07;;;;;;;-2.12;88.70;101352.37;4421856;32;20097;-72
2021/12/14 00:34:06;;;;;;;34.47;13.38;;;;;;;-2.07;88.20;101359.56;4421631;32;20108;-72
2021/12/14 00:36:38;;;;;;;28.30;12.10;;;;;;;-2.05;87.98;101359.63;4421642;32;20145;-72
2021/12/14 00:39:08;;;;;;;24.73;12.35;;;;;;;-2.07;87.55;101356.97;4421481;32;20098;-72
2021/12/14 00:41:38;;;;;;;27.05;11.43;;;;;;;-2.21;88.27;101361.38;4421532;32;20146;-72
2021/12/14 00:44:07;;;;;;;24.42;11.40;;;;;;;-1.87;86.92;101355.50;4421460;32;20153;-72
2021/12/14 00:46:36;;;;;;;22.33;11.30;;;;;;;-2.11;87.77;101360.22;4421450;32;20403;-72
2021/12/14 00:49:09;;;;;;;28.55;10.32;;;;;;;-2.07;87.41;101367.31;4421468;32;20097;-72
2021/12/14 00:51:36;;;;;;;26.75;11.50;;;;;;;-2.27;88.26;101371.38;4421554;32;20542;-72
2021/12/14 00:54:09;;;;;;;28.95;12.75;;;;;;;-2.26;88.15;101374.84;4421361;32;20451;-72
2021/12/14 00:56:37;;;;;;;29.33;13.43;;;;;;;-2.29;87.99;101374.69;4421492;32;20698;-72
2021/12/14 00:59:07;;;;;;;27.20;12.40;;;;;;;-2.24;87.62;101375.81;4420758;32;20101;-72
2021/12/14 01:01:43;;;;;;;25.33;11.95;;;;;;;-2.20;87.34;101377.75;4421398;32;20092;-72
2021/12/14 01:04:18;;;;;;;22.48;10.48;;;;;;;-2.27;88.01;101373.94;4421337;32;20153;-72
2021/12/14 01:06:46;;;;;;;22.37;10.20;;;;;;;-2.21;87.84;101370.84;4421584;32;20086;-72
2021/12/14 01:09:19;;;;;;;22.70;10.25;;;;;;;-2.27;88.63;101373.94;4421104;32;20097;-72
2021/12/14 01:11:48;;;;;;;25.40;11.02;;;;;;;-2.19;87.33;101372.72;4421353;32;20501;-72
2021/12/14 01:14:30;;;;;;;23.52;11.88;;;;;;;-2.17;87.70;101368.50;4421227;32;20500;-72
2021/12/14 01:17:13;;;;;;;24.40;11.32;;;;;;;-2.18;87.57;101368.44;4421524;32;20139;-72
2021/12/14 01:19:51;;;;;;;21.95;10.77;;;;;;;-2.23;88.10;101375.00;4421051;32;20090;-72
2021/12/14 01:22:41;;;;;;;22.75;11.15;;;;;;;-2.14;87.06;101379.81;4421207;32;20089;-72
2021/12/14 01:25:11;;;;;;;21.73;10.02;;;;;;;-2.07;86.62;101377.66;4421284;32;20508;-72
2021/12/14 01:27:53;;;;;;;21.77;9.40;;;;;;;-2.06;86.99;101381.09;4421103;32;20086;-72
2021/12/14 01:30:35;;;;;;;17.58;10.25;;;;;;;-2.05;87.08;101376.06;4421428;32;20158;-72
2021/12/14 01:33:07;;;;;;;25.98;10.20;;;;;;;-2.16;87.23;101379.72;4421148;32;20156;-72
2021/12/14 01:35:39;;;;;;;18.48;8.55;;;;;;;-2.31;88.30;101381.44;4421122;32;20322;-72
2021/12/14 01:38:34;;;;;;;20.60;8.95;;;;;;;-2.20;87.22;101375.19;4421082;32;20077;-72
2021/12/14 01:41:08;;;;;;;19.92;9.63;;;;;;;-2.18;86.30;101371.00;4420972;32;20146;-72
2021/12/14 01:43:49;;;;;;;25.20;10.32;;;;;;;-2.25;86.79;101372.34;4420965;32;20416;-72
2021/12/14 01:46:26;;;;;;;23.33;10.98;;;;;;;-2.32;87.10;101369.34;4421282;32;20436;-72
2021/12/14 01:48:55;;;;;;;28.45;11.02;;;;;;;-2.33;87.04;101372.72;4421310;32;20119;-72
2021/12/14 01:51:24;;;;;;;23.42;10.43;;;;;;;-2.26;86.59;101375.75;4406666;32;20157;-72
2021/12/14 01:53:55;;;;;;;24.42;10.65;;;;;;;-2.27;86.59;101370.47;4420980;32;20583;-72
2021/12/14 01:56:26;;;;;;;24.30;11.50;;;;;;;-2.30;86.41;101366.03;4420943;32;20085;-72
2021/12/14 01:59:08;;;;;;;26.00;12.07;;;;;;;-2.40;87.49;101366.34;4420990;32;20530;-72
2021/12/14 02:01:45;;;;;;;27.45;10.98;;;;;;;-2.83;91.18;101369.03;4420814;32;20537;-72
2021/12/14 02:04:18;;;;;;;24.17;9.00;;;;;;;-2.81;90.23;101370.03;4420835;32;20562;-72
2021/12/14 02:06:57;;;;;;;28.23;12.27;;;;;;;-2.79;90.07;101371.03;4420788;32;20516;-72
2021/12/14 02:09:29;;;;;;;30.25;11.07;;;;;;;-2.73;89.68;101363.63;4420835;32;20090;-72
2021/12/14 02:12:00;;;;;;;29.55;11.52;;;;;;;-2.67;89.03;101368.25;4420729;32;20086;-72
2021/12/14 02:14:30;;;;;;;20.10;10.05;;;;;;;-2.75;88.96;101367.81;4420947;32;20431;-72
2021/12/14 02:17:01;;;;;;;28.12;11.23;;;;;;;-2.80;89.60;101370.94;4420785;32;20433;-72
2021/12/14 02:19:30;;;;;;;24.42;11.38;;;;;;;-2.63;88.15;101367.62;4420816;32;20124;-72
2021/12/14 02:22:00;;;;;;;19.65;10.52;;;;;;;-2.64;88.38;101363.28;4420604;31;20764;-72
2021/12/14 02:24:29;;;;;;;26.48;11.88;;;;;;;-2.57;87.62;101360.25;4420447;32;20468;-71
2021/12/14 02:26:59;;;;;;;20.40;9.88;;;;;;;-2.67;88.54;101365.69;4420787;32;20480;-72
2021/12/14 02:29:40;;;;;;;25.50;11.02;;;;;;;-2.61;87.93;101367.72;4420531;32;20097;-72
2021/12/14 02:32:12;;;;;;;30.12;11.93;;;;;;;-2.62;87.78;101369.37;4420739;32;20157;-72
2021/12/14 02:34:46;;;;;;;22.27;11.18;;;;;;;-2.68;88.73;101371.66;4420504;32;20487;-72
2021/12/14 02:37:15;;;;;;;23.52;11.18;;;;;;;-2.75;88.59;101372.09;4420790;32;20081;-72
2021/12/14 02:42:23;;;;;;;24.98;11.43;;;;;;;-2.62;87.72;101368.50;4420448;32;20180;-72
2021/12/14 02:44:53;;;;;;;21.70;10.55;;;;;;;-2.55;86.70;101379.25;4420406;32;20511;-72
2021/12/14 02:47:24;;;;;;;22.48;11.32;;;;;;;-2.54;86.60;101372.44;4420654;32;20440;-72
2021/12/14 02:49:52;;;;;;;24.77;11.40;;;;;;;-2.71;87.30;101376.63;4420399;32;20093;-72
2021/12/14 02:52:32;;;;;;;26.73;11.73;;;;;;;-2.73;87.23;101373.06;4420231;32;20105;-72
2021/12/14 02:55:10;;;;;;;25.58;10.25;;;;;;;-2.78;87.45;101382.22;4420509;32;20456;-72
2021/12/14 02:57:42;;;;;;;23.00;10.65;;;;;;;-2.70;86.75;101376.69;4420317;32;20077;-72
2021/12/14 03:00:16;;;;;;;27.80;10.73;;;;;;;-2.64;86.27;101371.00;4420161;32;20161;-72
2021/12/14 03:02:44;;;;;;;24.52;10.68;;;;;;;-2.75;86.88;101366.94;4420155;32;20090;-72
2021/12/14 03:05:21;;;;;;;25.85;11.65;;;;;;;-2.75;86.87;101366.94;4420077;31;20177;-72
2021/12/14 03:07:59;;;;;;;29.65;12.88;;;;;;;-2.75;86.59;101366.94;4420253;32;20119;-72
2021/12/14 03:10:35;;;;;;;27.70;12.65;;;;;;;-2.79;86.71;101363.28;4420398;32;20115;-72
2021/12/14 03:13:10;;;;;;;27.98;11.65;;;;;;;-2.52;86.18;101360.50;4420014;32;20106;-72
2021/12/14 03:15:47;;;;;;;29.67;11.95;;;;;;;-2.43;85.78;101363.59;4420333;32;20156;-72
2021/12/14 03:18:20;;;;;;;26.02;11.50;;;;;;;-2.53;86.45;101363.88;4419938;32;20496;-72
2021/12/14 03:20:56;;;;;;;22.02;10.57;;;;;;;-2.76;86.70;101357.41;4420347;32;20636;-72
2021/12/14 03:23:33;;;;;;;36.33;13.98;;;;;;;-2.97;87.77;101357.97;4422483;32;20109;-72
2021/12/14 03:26:04;;;;;;;64.32;24.95;;;;;;;-3.22;90.54;101359.88;4422172;32;20497;-72
2021/12/14 03:28:33;;;;;;;42.30;17.23;;;;;;;-3.19;90.33;101360.94;4422555;32;20085;-72
2021/12/14 03:31:05;;;;;;;44.53;19.48;;;;;;;-3.20;91.04;101366.91;4422408;32;20443;-72
2021/12/14 03:33:41;;;;;;;47.03;21.65;;;;;;;-3.01;89.85;101366.28;4422383;32;20101;-72
2021/12/14 03:36:17;;;;;;;48.67;17.42;;;;;;;-3.16;90.22;101358.56;4422151;32;20506;-72
2021/12/14 03:38:54;;;;;;;31.37;14.38;;;;;;;-3.04;89.22;101366.16;4422243;32;20624;-72
2021/12/14 03:41:36;;;;;;;35.08;14.85;;;;;;;-3.04;89.80;101363.56;4422130;32;20094;-72
2021/12/14 03:44:12;;;;;;;42.03;16.35;;;;;;;-2.92;88.46;101365.97;4421967;32;20082;-72
2021/12/14 03:47:00;;;;;;;40.45;16.25;;;;;;;-2.93;88.67;101362.50;4422312;32;20516;-72
2021/12/14 03:49:32;;;;;;;36.70;15.98;;;;;;;-2.95;88.96;101363.19;4421963;32;20089;-72
2021/12/14 03:52:01;;;;;;;44.05;18.17;;;;;;;-2.86;88.79;101365.41;4422230;32;20455;-72
2021/12/14 03:54:29;;;;;;;45.47;18.83;;;;;;;-3.05;89.35;101355.72;4422001;31;20153;-72
2021/12/14 03:56:59;;;;;;;47.28;18.37;;;;;;;-3.09;89.54;101364.09;4422008;32;20100;-72
2021/12/14 03:59:28;;;;;;;47.42;17.95;;;;;;;-2.81;87.70;101362.31;4422141;32;20111;-72
2021/12/14 04:01:58;;;;;;;50.97;17.25;;;;;;;-2.92;87.68;101363.38;4422144;31;20085;-72
2021/12/14 04:04:31;;;;;;;43.58;17.10;;;;;;;-3.12;88.68;101362.22;4421991;32;20465;-72
2021/12/14 04:07:00;;;;;;;40.83;17.60;;;;;;;-3.15;88.84;101365.47;4422005;32;20576;-72
2021/12/14 04:09:32;;;;;;;46.78;18.40;;;;;;;-3.10;88.80;101363.19;4422014;32;20109;-72
2021/12/14 04:12:00;;;;;;;46.58;17.62;;;;;;;-2.87;87.32;101361.06;4421832;32;20086;-72
2021/12/14 04:14:31;;;;;;;47.83;17.62;;;;;;;-2.74;86.92;101358.38;4422084;32;20513;-72
2021/12/14 04:17:00;;;;;;;42.17;16.87;;;;;;;-2.66;86.37;101362.28;4421730;32;20517;-72
2021/12/14 04:19:29;;;;;;;42.65;17.12;;;;;;;-2.90;87.08;101364.34;4421951;32;20427;-72
2021/12/14 04:22:05;;;;;;;42.17;16.17;;;;;;;-3.16;88.33;101362.84;4421886;32;20120;-72
2021/12/14 04:24:36;;;;;;;40.40;16.37;;;;;;;-3.38;89.43;101369.28;4407609;32;20157;-72
2021/12/14 04:27:08;;;;;;;37.40;15.15;;;;;;;-3.19;88.54;101362.66;4421773;32;20527;-72
2021/12/14 04:29:36;;;;;;;40.53;16.55;;;;;;;-3.06;88.08;101360.00;4421845;32;20432;-72
2021/12/14 04:32:06;;;;;;;41.92;17.27;;;;;;;-3.30;88.59;101363.72;4421254;32;20660;-72
2021/12/14 04:34:34;;;;;;;40.30;16.90;;;;;;;-3.27;88.08;101369.94;4421516;32;20133;-72
2021/12/14 04:37:04;;;;;;;41.15;14.25;;;;;;;-3.29;87.96;101358.63;4421835;32;20160;-72
2021/12/14 04:39:41;;;;;;;39.95;16.30;;;;;;;-3.11;87.13;101356.25;4421629;32;20101;-72
2021/12/14 04:54:03;;;;;;;38.90;16.80;;;;;;;-3.20;87.12;101366.91;4419803;32;20086;-72
2021/12/14 04:56:37;;;;;;;39.03;17.48;;;;;;;-3.23;87.41;101365.84;4422051;32;20480;-72
2021/12/14 04:59:27;;;;;;;41.25;16.73;;;;;;;-3.36;88.85;101364.22;4421466;32;20157;-72
2021/12/14 05:02:02;;;;;;;39.47;15.80;;;;;;;-3.20;88.08;101363.47;4418998;32;21002;-72
2021/12/14 05:04:32;;;;;;;44.47;16.85;;;;;;;-3.23;88.10;101364.16;4421466;32;20119;-72
2021/12/14 05:07:25;;;;;;;43.15;19.55;;;;;;;-3.50;89.14;101373.69;4421206;32;20671;-72
2021/12/14 05:09:53;;;;;;;48.53;18.48;;;;;;;-3.88;92.21;101386.81;4421491;32;20115;-72
2021/12/14 05:12:28;;;;;;;51.60;19.23;;;;;;;-3.55;90.19;101374.22;4412246;32;20122;-72
2021/12/14 05:14:59;;;;;;;43.85;19.48;;;;;;;-3.66;90.30;101389.91;4425437;32;20455;-71
2021/12/14 05:17:33;;;;;;;44.58;19.85;;;;;;;-3.80;91.59;101387.28;4421448;32;20093;-71
2021/12/14 05:20:03;;;;;;;51.33;22.33;;;;;;;-3.46;89.93;101383.41;4421291;32;20156;-72
2021/12/14 05:22:34;;;;;;;81.53;35.72;;;;;;;-3.64;90.06;101384.84;4420990;32;20086;-71
2021/12/14 05:25:21;;;;;;;63.65;25.37;;;;;;;-3.45;90.24;101386.88;4421270;32;20152;-71
2021/12/14 05:27:51;;;;;;;57.20;23.75;;;;;;;-3.74;91.10;101390.25;4421172;32;20758;-71
2021/12/14 05:30:28;;;;;;;45.90;20.33;;;;;;;-3.67;91.77;101387.25;4420997;32;20436;-71
2021/12/14 05:33:23;;;;;;;43.03;18.75;;;;;;;-3.44;89.91;101396.37;4421213;32;20156;-71
2021/12/14 05:35:54;;;;;;;40.50;19.23;;;;;;;-3.54;90.87;101389.75;4421190;32;20111;-71
2021/12/14 05:38:41;;;;;;;40.83;18.20;;;;;;;-3.13;89.37;101392.25;4420877;32;20089;-71
2021/12/14 05:44:02;;;;;;;47.03;19.35;;;;;;;-3.83;91.81;101402.56;4420191;32;20085;-71
2021/12/14 05:46:35;;;;;;;40.42;18.50;;;;;;;-3.50;90.10;101391.72;4420884;32;20093;-71
2021/12/14 05:49:09;;;;;;;41.88;18.98;;;;;;;-3.53;89.73;101401.88;4421021;32;20101;-71
2021/12/14 05:51:36;;;;;;;45.83;20.40;;;;;;;-3.63;89.83;101407.25;4420806;32;20201;-71
2021/12/14 05:54:06;;;;;;;44.72;20.00;;;;;;;-3.81;91.01;101419.00;4420748;32;20124;-71
2021/12/14 05:56:34;;;;;;;50.10;20.35;;;;;;;-3.97;92.12;101420.59;4421464;32;20197;-72
2021/12/14 05:59:02;;;;;;;46.63;21.15;;;;;;;-4.13;93.35;101418.75;4421713;32;20132;-71
2021/12/14 06:01:33;;;;;;;46.25;20.58;;;;;;;-4.13;93.37;101420.44;4421494;32;20089;-71
2021/12/14 06:04:08;;;;;;;50.78;22.37;;;;;;;-4.16;93.07;101427.97;4421730;32;20520;-72
2021/12/14 06:06:41;;;;;;;49.13;22.42;;;;;;;-3.87;91.34;101419.50;4421362;32;20156;-72
2021/12/14 06:09:19;;;;;;;58.28;23.27;;;;;;;-3.55;89.35;101410.28;4421386;32;20150;-71
2021/12/14 06:11:53;;;;;;;47.88;20.85;;;;;;;-3.90;90.22;101409.00;4421443;32;20193;-71
2021/12/14 06:14:23;;;;;;;42.33;19.95;;;;;;;-3.99;90.76;101423.84;4421156;32;20084;-72
2021/12/14 06:16:55;;;;;;;50.80;21.65;;;;;;;-3.69;89.09;101419.75;4418233;32;87551;-71
2021/12/14 06:19:31;;;;;;;48.22;20.83;;;;;;;-3.88;89.88;101410.00;4420657;32;20125;-72
2021/12/14 06:22:06;;;;;;;52.47;22.43;;;;;;;-4.02;90.21;101422.00;4421196;32;20453;-71
2021/12/14 06:24:37;;;;;;;48.53;20.50;;;;;;;-3.94;90.22;101419.91;4421178;32;20139;-74
2021/12/14 06:27:08;;;;;;;46.22;20.52;;;;;;;-3.52;88.25;101419.09;4421171;32;20162;-71
2021/12/14 06:29:46;;;;;;;54.88;20.90;;;;;;;-3.32;87.79;101422.91;4421085;32;20140;-70
2021/12/14 06:32:17;;;;;;;58.00;23.98;;;;;;;-3.76;89.38;101427.88;4420700;32;20180;-70
2021/12/14 06:34:49;;;;;;;87.78;37.92;;;;;;;-3.89;90.44;101424.56;4420382;32;20424;-72
2021/12/14 06:37:23;;;;;;;61.33;26.08;;;;;;;-3.78;89.53;101430.37;4419182;32;20140;-72
2021/12/14 06:40:21;;;;;;;56.25;25.77;;;;;;;-4.07;91.46;101423.37;4419247;32;20162;-72
2021/12/14 06:42:49;;;;;;;;;;;;;;;-3.97;90.76;101428.31;4413057;32;20421;-72
2021/12/14 06:45:20;;;;;;;79.62;29.95;;;;;;;-3.82;90.15;101432.66;4420214;32;20002;-72
2021/12/14 06:47:52;;;;;;;62.10;28.80;;;;;;;-3.94;90.61;101431.09;4420287;32;20150;-71
2021/12/14 06:50:28;;;;;;;64.07;26.33;;;;;;;-3.92;90.79;101433.78;4420306;32;20424;-71
2021/12/14 06:53:06;;;;;;;75.50;26.83;;;;;;;-3.81;90.11;101422.47;4419323;32;20112;-71
2021/12/14 06:55:37;;;;;;;75.07;29.67;;;;;;;-3.34;87.67;101424.47;4420074;32;20085;-71
2021/12/14 06:58:14;;;;;;;72.05;29.37;;;;;;;-3.25;87.52;101429.28;4425391;32;20085;-71
2021/12/14 07:00:49;;;;;;;68.32;29.27;;;;;;;-3.15;86.76;101429.94;4427429;32;20133;-71
2021/12/14 07:03:17;;;;;;;59.95;27.87;;;;;;;-3.43;88.14;101437.72;4427531;32;20147;-71
2021/12/14 07:05:49;;;;;;;59.65;25.02;;;;;;;-3.23;87.58;101441.47;4421860;32;20161;-72
2021/12/14 07:08:26;;;;;;;59.30;25.27;;;;;;;-3.33;87.87;101444.28;4423882;32;20089;-71
2021/12/14 07:10:55;;;;;;;60.45;25.58;;;;;;;-3.22;87.90;101440.66;4426109;32;20082;-71
2021/12/14 07:13:28;;;;;;;56.67;25.00;;;;;;;-3.10;87.07;101440.53;4425263;32;20454;-72
2021/12/14 07:15:55;;;;;;;57.85;24.73;;;;;;;-3.00;87.01;101440.28;4419764;32;20101;-71
2021/12/14 07:18:28;;;;;;;53.45;21.98;;;;;;;-2.71;85.90;101443.69;4419632;32;20081;-71
2021/12/14 07:20:56;;;;;;;52.38;21.02;;;;;;;-2.75;86.32;101441.75;4423283;32;20157;-71
2021/12/14 07:23:33;;;;;;;57.55;23.77;;;;;;;-2.73;86.60;101447.84;4425443;32;20119;-72
2021/12/14 07:26:18;;;;;;;53.70;20.92;;;;;;;-2.62;86.88;101445.91;4428941;32;20164;-72
2021/12/14 07:28:47;;;;;;;58.85;24.17;;;;;;;-2.46;86.75;101449.47;4427140;32;20158;-72
2021/12/14 07:31:20;;;;;;;57.40;23.20;;;;;;;-2.43;87.01;101453.94;4418533;32;20093;-72
2021/12/14 07:33:51;;;;;;;82.12;33.65;;;;;;;-2.51;88.34;101458.66;4418173;32;20963;-72
2021/12/14 07:36:36;;;;;;;53.85;23.67;;;;;;;-2.39;88.75;101461.03;4418685;32;20081;-72
2021/12/14 07:39:10;;;;;;;60.45;24.42;;;;;;;-2.13;87.20;101457.34;4418886;32;20098;-72
2021/12/14 07:41:54;;;;;;;55.20;24.05;;;;;;;-2.01;87.57;101468.38;4419013;32;20987;-72
2021/12/14 07:44:27;;;;;;;57.17;25.33;;;;;;;-1.99;88.03;101459.00;4418486;32;20097;-72
2021/12/14 07:47:03;;;;;;;67.82;29.40;;;;;;;-2.01;89.12;101459.75;4416905;32;20085;-71
2021/12/14 07:49:30;;;;;;;76.35;33.30;;;;;;;-1.81;88.18;101450.50;4418546;32;20128;-73
2021/12/14 07:52:18;;;;;;;74.80;32.08;;;;;;;-1.61;86.56;101455.06;4418387;32;20165;-71
2021/12/14 07:54:48;;;;;;;88.97;34.67;;;;;;;-1.41;85.35;101450.97;4423360;32;20168;-71
2021/12/14 07:57:23;;;;;;;90.82;40.42;;;;;;;-1.84;88.70;101450.31;4417864;32;20419;-71
2021/12/14 07:59:58;;;;;;;105.20;46.20;;;;;;;-1.74;88.04;101453.50;4417487;32;20102;-71
2021/12/14 08:02:38;;;;;;;93.50;41.92;;;;;;;-1.66;88.36;101455.59;4417422;32;20436;-71
2021/12/14 08:05:22;;;;;;;78.10;36.63;;;;;;;-1.64;88.77;101456.59;4421541;32;20137;-71
2021/12/14 08:08:09;;;;;;;76.28;34.97;;;;;;;-1.62;89.27;101455.88;4435535;32;20081;-71
2021/12/14 08:10:40;;;;;;;78.40;33.95;;;;;;;-1.45;88.17;101449.94;4437416;32;20093;-71
2021/12/14 08:13:13;;;;;;;73.10;31.80;;;;;;;-1.22;86.94;101453.72;4437008;32;20093;-71
2021/12/14 08:15:47;;;;;;;74.87;34.47;;;;;;;-1.16;87.03;101452.28;4437179;32;20085;-71
2021/12/14 08:18:44;;;;;;;74.80;34.72;;;;;;;-1.09;87.01;101457.84;4437590;32;20103;-71
2021/12/14 08:21:19;;;;;;;69.97;31.42;;;;;;;-0.93;86.55;101453.47;4421539;32;20193;-71
2021/12/14 08:23:59;;;;;;;65.35;29.20;;;;;;;-0.87;86.67;101452.06;4437150;32;20085;-71
2021/12/14 08:26:31;;;;;;;66.45;28.95;;;;;;;-0.69;87.34;101448.66;4437003;32;20133;-71
2021/12/14 08:29:07;;;;;;;59.55;26.70;;;;;;;-0.54;86.45;101454.59;4435832;32;20085;-71
2021/12/14 08:31:49;;;;;;;60.87;26.57;;;;;;;-0.46;85.94;101452.38;4429261;32;20097;-71
2021/12/14 08:34:23;;;;;;;62.25;24.75;;;;;;;-0.12;84.69;101447.16;4427408;32;20171;-70
2021/12/14 08:36:59;;;;;;;48.40;21.80;;;;;;;-0.12;85.04;101454.94;4431475;32;20116;-71
2021/12/14 08:39:29;;;;;;;48.30;22.83;;;;;;;-0.11;84.91;101455.00;4431064;32;20093;-70
2021/12/14 08:42:11;;;;;;;50.65;23.52;;;;;;;-0.28;86.10;101453.31;4422178;32;20101;-70
2021/12/14 08:44:41;;;;;;;44.53;21.20;;;;;;;-0.29;86.49;101454.09;4422083;32;20097;-71
2021/12/14 08:47:13;;;;;;;51.28;23.42;;;;;;;0.13;84.32;101455.28;4430887;32;20092;-71
2021/12/14 08:49:42;;;;;;;45.35;20.88;;;;;;;0.32;83.59;101456.12;4435643;32;20197;-71
2021/12/14 08:52:11;;;;;;;45.50;21.65;;;;;;;0.51;83.28;101456.19;4428314;32;20116;-71
2021/12/14 08:54:40;;;;;;;46.22;22.85;;;;;;;0.70;82.01;101458.78;4434430;32;20771;-70
2021/12/14 08:57:10;;;;;;;53.05;24.45;;;;;;;0.81;81.92;101463.56;4423108;31;20154;-71
2021/12/14 08:59:39;;;;;;;48.87;23.25;;;;;;;0.76;83.35;101459.91;4437632;32;20214;-71
2021/12/14 09:02:08;;;;;;;55.70;24.05;;;;;;;0.78;83.24;101453.97;4436776;32;20089;-71
2021/12/14 09:04:42;;;;;;;47.97;23.52;;;;;;;0.85;83.10;101450.81;4421988;32;20324;-71
2021/12/14 09:07:14;;;;;;;53.67;24.30;;;;;;;1.04;82.86;101446.44;4436730;32;20146;-72
2021/12/14 09:09:43;;;;;;;49.33;22.87;;;;;;;1.04;82.88;101454.22;4434679;32;20097;-71
2021/12/14 09:12:25;;;;;;;47.08;22.13;;;;;;;0.98;83.26;101453.94;4433348;32;20085;-69
2021/12/14 09:14:56;;;;;;;50.20;23.52;;;;;;;1.08;83.10;101446.63;4419846;32;20101;-70
2021/12/14 09:17:24;;;;;;;59.33;26.52;;;;;;;1.29;82.93;101444.06;4419663;32;20566;-70
2021/12/14 09:20:00;;;;;;;50.30;23.25;;;;;;;1.34;82.17;101442.56;4418596;32;20438;-71
2021/12/14 09:22:41;;;;;;;55.03;25.33;;;;;;;1.54;81.81;101446.00;4429023;32;20639;-71
2021/12/14 09:25:15;;;;;;;47.03;21.95;;;;;;;1.62;81.91;101451.50;4420159;31;20106;-71
2021/12/14 09:27:45;;;;;;;47.70;24.15;;;;;;;1.78;82.10;101450.44;4421887;32;20131;-71
2021/12/14 09:30:17;;;;;;;64.35;29.10;;;;;;;1.80;81.93;101449.69;4432074;32;20485;-71
2021/12/14 09:32:46;;;;;;;77.05;34.97;;;;;;;2.03;81.26;101445.38;4430797;32;20144;-71
2021/12/14 09:35:17;;;;;;;73.00;32.05;;;;;;;1.87;81.28;101442.97;4422537;32;20090;-71
2021/12/14 09:37:48;;;;;;;79.22;34.65;;;;;;;1.92;82.67;101447.56;4422305;32;20152;-71
2021/12/14 09:40:29;;;;;;;86.20;35.35;;;;;;;1.95;82.91;101444.19;4425099;32;20170;-74
2021/12/14 09:42:58;;;;;;;70.40;31.62;;;;;;;2.11;81.39;101443.97;4424367;32;20150;-74
2021/12/14 09:45:34;;;;;;;67.00;32.03;;;;;;;2.17;80.86;101439.84;4420179;32;20089;-71
2021/12/14 09:48:04;;;;;;;64.00;29.67;;;;;;;2.32;80.20;101440.44;4432998;32;20518;-71
2021/12/14 09:50:34;;;;;;;59.88;28.27;;;;;;;2.44;79.60;101440.00;4428902;31;20560;-73
2021/12/14 09:53:06;;;;;;;64.70;28.58;;;;;;;2.34;79.16;101433.59;4421915;32;20111;-71
2021/12/14 09:55:37;;;;;;;65.85;28.12;;;;;;;2.09;79.67;101435.25;4419975;32;20109;-72
2021/12/14 09:58:19;;;;;;;53.60;24.17;;;;;;;2.14;80.70;101428.50;4426041;32;20502;-71
2021/12/14 10:00:55;;;;;;;60.03;25.08;;;;;;;2.31;80.82;101425.66;4426244;32;20089;-71
2021/12/14 10:03:24;;;;;;;54.80;24.37;;;;;;;2.21;84.24;101427.00;4427805;32;20390;-71
2021/12/14 10:06:05;;;;;;;43.42;21.55;;;;;;;1.84;82.37;101425.59;4430120;32;20471;-71
2021/12/14 10:08:37;;;;;;;43.90;21.20;;;;;;;1.66;83.30;101419.63;4429009;32;20747;-71
2021/12/14 10:11:14;;;;;;;52.30;22.37;;;;;;;2.00;81.43;101418.38;4429529;32;20097;-74
2021/12/14 10:13:45;;;;;;;45.78;21.42;;;;;;;2.02;82.00;101428.03;4426305;32;20575;-74
2021/12/14 10:16:12;;;;;;;48.83;22.33;;;;;;;2.42;79.63;101420.88;4420276;32;21021;-72
2021/12/14 10:18:43;;;;;;;51.63;22.45;;;;;;;2.95;78.29;101414.13;4424187;32;20088;-73
2021/12/14 10:21:20;;;;;;;50.17;23.67;;;;;;;3.65;75.23;101416.53;4419976;32;20089;-70
2021/12/14 10:23:50;;;;;;;50.70;23.27;;;;;;;4.86;71.40;101408.88;4423248;32;20135;-70
2021/12/14 10:26:22;;;;;;;49.47;21.87;;;;;;;5.86;67.65;101412.31;4430198;32;20101;-70
2021/12/14 10:28:54;;;;;;;49.25;22.20;;;;;;;5.82;67.39;101411.38;4436677;32;20479;-70
2021/12/14 10:31:44;;;;;;;36.53;18.98;;;;;;;6.28;66.15;101408.94;4423680;32;20140;-70
2021/12/14 10:34:18;;;;;;;42.75;21.80;;;;;;;6.32;66.37;101405.56;4420899;32;20101;-70
2021/12/14 10:36:50;;;;;;;51.00;24.37;;;;;;;5.98;66.16;101403.06;4420748;32;20081;-70
2021/12/14 10:44:46;;;;;;;44.42;22.17;;;;;;;7.89;59.70;101407.63;4429256;32;20101;-71
2021/12/14 10:47:15;;;;;;;47.25;22.25;;;;;;;8.86;56.62;101409.81;4420210;32;20106;-71
2021/12/14 10:49:48;;;;;;;40.67;22.42;;;;;;;8.63;55.76;101408.69;4419613;32;20452;-71
2021/12/14 10:52:21;;;;;;;41.13;22.08;;;;;;;7.13;60.56;101413.31;4430860;32;20085;-70
2021/12/14 10:54:55;;;;;;;36.85;20.77;;;;;;;7.61;60.09;101403.66;4420893;31;20081;-69
2021/12/14 10:57:28;;;;;;;37.40;20.15;;;;;;;7.38;60.55;101398.91;4418665;32;20142;-70
2021/12/14 11:00:08;;;;;;;37.28;20.98;;;;;;;6.93;60.85;101404.22;4419047;32;20176;-69
2021/12/14 11:02:42;;;;;;;37.20;21.23;;;;;;;6.77;61.97;101396.91;4419376;32;20108;-70
2021/12/14 11:05:17;;;;;;;42.42;21.25;;;;;;;6.17;63.26;101400.88;4426381;32;20421;-69
2021/12/14 11:07:47;;;;;;;58.38;26.80;;;;;;;6.36;64.49;101402.13;4424988;32;20097;-70
2021/12/14 11:10:17;;;;;;;60.80;28.38;;;;;;;6.52;62.78;101406.87;4420851;32;20756;-70
2021/12/14 11:12:48;;;;;;;60.12;27.62;;;;;;;8.24;57.63;101394.13;4420852;32;20149;-70
2021/12/14 11:15:23;;;;;;;46.80;23.08;;;;;;;8.19;58.24;101391.44;4420959;32;20085;-70
2021/12/14 11:18:13;;;;;;;40.12;20.48;;;;;;;8.09;58.55;101395.69;4422723;32;20123;-71
2021/12/14 11:20:49;;;;;;;33.65;18.02;;;;;;;9.26;54.29;101392.75;4420597;32;20089;-69
2021/12/14 11:23:19;;;;;;;34.70;18.83;;;;;;;10.13;52.21;101389.03;4427713;32;20089;-70
2021/12/14 11:25:49;;;;;;;35.45;17.42;;;;;;;9.20;53.74;101384.78;4427297;32;20089;-70
2021/12/14 11:28:33;;;;;;;37.20;18.62;;;;;;;9.91;53.04;101388.88;4434687;32;20185;-69
2021/12/14 11:31:19;;;;;;;22.58;14.32;;;;;;;9.95;53.20;101389.78;4435968;32;20120;-70
2021/12/14 11:33:49;;;;;;;24.95;15.52;;;;;;;10.43;47.82;101386.59;4434344;32;20085;-69
2021/12/14 11:36:22;;;;;;;31.83;17.23;;;;;;;9.10;54.32;101385.56;4429061;32;20097;-70
2021/12/14 11:38:52;;;;;;;32.33;18.52;;;;;;;10.16;51.27;101389.91;4419723;32;20081;-69
2021/12/14 11:41:59;;;;;;;37.78;20.58;;;;;;;10.53;50.30;101385.78;4419247;32;20101;-72
2021/12/14 11:44:30;;;;;;;37.53;21.42;;;;;;;10.75;48.46;101385.84;4422028;32;20089;-71
2021/12/14 11:47:22;;;;;;;41.88;23.90;;;;;;;13.17;46.94;101380.19;4429317;32;20153;-72
2021/12/14 11:50:04;;;;;;;28.05;18.25;;;;;;;13.93;43.51;101377.88;4435684;32;20102;-72
2021/12/14 11:52:40;;;;;;;27.45;16.77;;;;;;;14.50;40.12;101371.06;4420695;32;20140;-71
2021/12/14 11:55:35;;;;;;;25.35;16.27;;;;;;;14.80;41.85;101375.06;4420581;32;20121;-71
2021/12/14 11:58:30;;;;;;;25.50;17.50;;;;;;;15.23;40.26;101368.28;4431092;32;20153;-72
2021/12/14 12:01:27;;;;;;;27.35;17.55;;;;;;;15.35;40.40;101370.75;4421573;32;20385;-73
2021/12/14 12:04:16;;;;;;;28.62;18.80;;;;;;;16.10;38.89;101363.28;4426017;32;20105;-72
2021/12/14 12:09:41;;;;;;;30.42;19.65;;;;;;;15.76;37.82;101362.13;4426685;32;20193;-73
2021/12/14 12:12:14;;;;;;;25.85;17.60;;;;;;;16.10;36.22;101356.19;4437022;32;20833;-74